»·PEaware :: N45XS KSNA-KSNA

N45XS :: KSNA-KSNA

FLIGHT INFORMATION

Flight Status: Arrived
Operator: Privately registered:
United States
More flights under this callsign
Pilot: Mike D. (17473)
Aircraft: BEECH AIRCRAFT BARON
(BE58)
More flights by this aircraft type
Origin: KSNA John Wayne-Orange Co
United States
Destination: KSNA John Wayne-Orange Co
United States
More flights between these airports :: More routes between these airports
Route: KSNA SLI KSNA
File this flight plan on PilotEdge
Remarks: LOCAL IFR - PRACTICE APPROACHES
Altitude:
(Current/Filed)
4,000ft
Speed:
(Current/Filed)
160kts
Departed: 13-Apr-18 08:46 PM
Arrived: 13-Apr-18 09:41 PM
Distance/Time
Traveled:
1nm/0:55
Distance/Time
To Go:
Arrived

Flight Plot

Page will automatically refresh every two minutes.


Map Options




Map Legend


Flown Route
Filed Route
Departure Airport
Arrival Airport
Navaid (VOR, NDB)
Fix

Horizontal Profiles

Position Reports

Time Latitude Longitude Heading Altitude Ground
Speed
13-Apr-18 20:33 33.673817 -117.872201 118 57ft 0kts
13-Apr-18 20:34 33.673817 -117.872201 118 57ft 0kts
13-Apr-18 20:35 33.673817 -117.872201 118 57ft 0kts
13-Apr-18 20:36 33.673817 -117.872201 118 57ft 0kts
13-Apr-18 20:37 33.673817 -117.872201 118 57ft 0kts
13-Apr-18 20:38 33.673812 -117.872190 118 57ft 1kts
13-Apr-18 20:39 33.677566 -117.869166 30 57ft 24kts
13-Apr-18 20:40 33.681258 -117.866512 117 57ft 0kts
13-Apr-18 20:41 33.681258 -117.866512 117 57ft 0kts
13-Apr-18 20:42 33.681257 -117.866511 117 57ft 0kts
13-Apr-18 20:43 33.681258 -117.866512 117 57ft 0kts
13-Apr-18 20:44 33.681258 -117.866512 117 57ft 0kts
13-Apr-18 20:45 33.679497 -117.866427 207 57ft 60kts
13-Apr-18 20:46 33.655746 -117.885727 233 1182ft 112kts
13-Apr-18 20:47 33.634896 -117.914422 225 2211ft 112kts
13-Apr-18 20:48 33.625935 -117.944673 318 2903ft 119kts
13-Apr-18 20:49 33.658691 -117.963982 330 2986ft 140kts
13-Apr-18 20:50 33.694753 -117.983115 330 3048ft 143kts
13-Apr-18 20:51 33.731891 -117.998932 12 3020ft 151kts
13-Apr-18 20:52 33.770429 -117.979587 17 2952ft 151kts
13-Apr-18 20:53 33.807911 -117.958486 27 2929ft 144kts
13-Apr-18 20:54 33.844137 -117.939436 22 3027ft 143kts
13-Apr-18 20:55 33.881129 -117.920329 24 3072ft 146kts
13-Apr-18 20:56 33.917909 -117.898529 24 3024ft 147kts
13-Apr-18 20:57 33.934540 -117.861320 106 3009ft 141kts
13-Apr-18 20:58 33.920109 -117.819043 138 2955ft 133kts
13-Apr-18 20:59 33.896002 -117.788776 143 2939ft 119kts
13-Apr-18 21:00 33.868006 -117.771008 171 2971ft 118kts
13-Apr-18 21:01 33.836202 -117.769496 187 3037ft 115kts
13-Apr-18 21:02 33.807229 -117.784901 212 2872ft 118kts
13-Apr-18 21:03 33.777691 -117.803354 208 2290ft 122kts
13-Apr-18 21:04 33.749137 -117.821966 206 1548ft 114kts
13-Apr-18 21:05 33.721875 -117.839506 210 978ft 110kts
13-Apr-18 21:06 33.694599 -117.856661 211 369ft 112kts
13-Apr-18 21:07 33.666150 -117.879073 227 1181ft 127kts
13-Apr-18 21:08 33.644717 -117.912470 245 2234ft 125kts
13-Apr-18 21:09 33.670498 -117.932257 0 2899ft 148kts
13-Apr-18 21:10 33.710959 -117.929464 0 2985ft 147kts
13-Apr-18 21:11 33.751336 -117.920667 17 3037ft 149kts
13-Apr-18 21:12 33.790322 -117.902077 21 3026ft 152kts
13-Apr-18 21:13 33.829845 -117.883859 17 2996ft 152kts
13-Apr-18 21:14 33.868726 -117.863870 18 2977ft 152kts
13-Apr-18 21:15 33.881796 -117.823832 99 2978ft 143kts
13-Apr-18 21:16 33.877702 -117.780929 107 2941ft 121kts
13-Apr-18 21:17 33.849350 -117.770893 182 2978ft 116kts
13-Apr-18 21:18 33.818181 -117.778893 201 3061ft 116kts
13-Apr-18 21:19 33.787531 -117.797703 209 2582ft 133kts
13-Apr-18 21:20 33.755844 -117.817565 207 1714ft 120kts
13-Apr-18 21:21 33.727091 -117.835596 209 1062ft 115kts
13-Apr-18 21:22 33.699081 -117.853676 207 480ft 114kts
13-Apr-18 21:23 33.670356 -117.871818 207 1009ft 114kts
13-Apr-18 21:24 33.648198 -117.900421 246 2084ft 123kts
13-Apr-18 21:25 33.674214 -117.916103 359 2940ft 141kts
13-Apr-18 21:26 33.714035 -117.914816 357 3016ft 143kts
13-Apr-18 21:27 33.753498 -117.909152 19 2996ft 146kts
13-Apr-18 21:28 33.791022 -117.891082 21 3002ft 145kts
13-Apr-18 21:29 33.828515 -117.872867 21 3007ft 145kts
13-Apr-18 21:30 33.865865 -117.854454 18 3001ft 146kts
13-Apr-18 21:31 33.895200 -117.827417 99 2971ft 141kts
13-Apr-18 21:32 33.885258 -117.785013 114 2999ft 123kts
13-Apr-18 21:33 33.855705 -117.771582 168 2968ft 115kts
13-Apr-18 21:34 33.825509 -117.774982 197 3012ft 108kts
13-Apr-18 21:35 33.798079 -117.790966 214 2691ft 119kts
13-Apr-18 21:36 33.768223 -117.809509 208 2054ft 115kts
13-Apr-18 21:37 33.739540 -117.827525 206 1331ft 117kts
13-Apr-18 21:38 33.712523 -117.845230 209 754ft 110kts
13-Apr-18 21:39 33.686125 -117.862128 209 197ft 99kts
13-Apr-18 21:40 33.674291 -117.870930 291 57ft 0kts
13-Apr-18 21:41 33.672095 -117.872602 209 57ft 14kts
13-Apr-18 21:42 33.671854 -117.873605 205 57ft 0kts
13-Apr-18 21:43 33.671854 -117.873605 205 57ft 0kts
13-Apr-18 21:44 33.692327 -117.858193 209 349ft 108kts

Navigation Log

Ident Type
Flight plan parsing failed, navigation log unavailable